Ballincollig, Ireland
Current Conditions -  °F | °C
As of 3:00 PM on Saturday 25 Oct 2014 (Local Time) from EICK Reporting Station
Broken Clouds Broken Clouds  
Wind Chill: 12°   Ceiling: 3500
Heat Index: 12°   Visibility: 6mi
Dew Point:   Wind: 18mph
Humidity: 77%   Direction: 240°WSW
Pressure: 29.94"   Gusts: NA
Location:  51.89°N, 8.59°W
Report Text: EICK 251500Z 24016KT 9999 FEW025 BKN035 12/08 Q1014 NOSIG
Loading
Personal Weather Stations






























Interactive Weather Map
Tropical Storm Tracking
New forecast layout! Learn more

10-Day Weather Forecast

Advertisements
Track Severe Weather on mobile